Archival Weather

Sydney Intl

Sydney, Australia (YSSY)

Report from: Sunday, February 25, 2024 4:00 AM AEDT
Current time: Tuesday, April 23, 2024 5:33 PM AEST

Current weather – Weather history – Daily summaries
Weather forecast

Temperature17.0°C (62.6°F)
Dew point15.0°C (59.0°F)
Winds 6 kts (3.1 m/s, 6.9 mph) West (270°)
Visibility6.2 mi. (10 km)
Clouds Ceiling: Broken clouds 4,100 ft. (1,250 m)
Altimeter30.06 in.Hg (1018 mB)
Relative humidity88 %
Density altitude311 ft. (95 m)
Remarks Fully automated report
Flight conditions Visual Meteorological Conditions
Raw dataYSSY 241700Z AUTO 27006KT 9999 // BKN041 17/15 Q1018 RF00.0/000.0
An error has occurred. This application may no longer respond until reloaded. Reload 🗙